sensor_id;sensor_type;location;lat;lon;timestamp;temperature;humidity
47618;DHT22;33336;36.728;-4.414;2023-04-01T00:02:18;23.00;79.30
47618;DHT22;33336;36.728;-4.414;2023-04-01T00:07:21;23.00;79.30
47618;DHT22;33336;36.728;-4.414;2023-04-01T00:12:27;22.70;80.10
47618;DHT22;33336;36.728;-4.414;2023-04-01T00:17:30;22.80;80.00
47618;DHT22;33336;36.728;-4.414;2023-04-01T00:22:33;22.80;79.90
47618;DHT22;33336;36.728;-4.414;2023-04-01T00:27:38;22.70;80.40
47618;DHT22;33336;36.728;-4.414;2023-04-01T00:32:41;22.60;80.60
47618;DHT22;33336;36.728;-4.414;2023-04-01T00:37:43;22.40;81.00
47618;DHT22;33336;36.728;-4.414;2023-04-01T00:42:48;22.40;81.40
47618;DHT22;33336;36.728;-4.414;2023-04-01T00:47:51;22.10;81.90
47618;DHT22;33336;36.728;-4.414;2023-04-01T00:52:55;22.10;82.10
47618;DHT22;33336;36.728;-4.414;2023-04-01T00:58:00;22.20;81.90
47618;DHT22;33336;36.728;-4.414;2023-04-01T01:03:04;22.20;82.00
47618;DHT22;33336;36.728;-4.414;2023-04-01T01:08:14;22.10;82.40
47618;DHT22;33336;36.728;-4.414;2023-04-01T01:13:24;21.90;83.20
47618;DHT22;33336;36.728;-4.414;2023-04-01T01:18:34;22.00;83.10
47618;DHT22;33336;36.728;-4.414;2023-04-01T01:23:57;21.90;83.20
47618;DHT22;33336;36.728;-4.414;2023-04-01T01:29:15;21.80;84.00
47618;DHT22;33336;36.728;-4.414;2023-04-01T01:34:23;21.90;83.80
47618;DHT22;33336;36.728;-4.414;2023-04-01T01:39:31;21.70;84.80
47618;DHT22;33336;36.728;-4.414;2023-04-01T01:44:38;21.80;84.20
47618;DHT22;33336;36.728;-4.414;2023-04-01T01:49:42;21.60;85.00
47618;DHT22;33336;36.728;-4.414;2023-04-01T01:54:51;21.50;85.20
47618;DHT22;33336;36.728;-4.414;2023-04-01T01:59:58;21.50;85.30
47618;DHT22;33336;36.728;-4.414;2023-04-01T02:05:01;21.60;85.00
47618;DHT22;33336;36.728;-4.414;2023-04-01T02:10:09;21.30;85.50
47618;DHT22;33336;36.728;-4.414;2023-04-01T02:15:14;21.20;86.40
47618;DHT22;33336;36.728;-4.414;2023-04-01T02:20:19;21.30;86.40
47618;DHT22;33336;36.728;-4.414;2023-04-01T02:25:27;21.20;86.50
47618;DHT22;33336;36.728;-4.414;2023-04-01T02:30:32;21.30;86.30
47618;DHT22;33336;36.728;-4.414;2023-04-01T02:35:37;21.60;85.90
47618;DHT22;33336;36.728;-4.414;2023-04-01T02:40:47;21.30;86.80
47618;DHT22;33336;36.728;-4.414;2023-04-01T02:45:50;21.40;87.00
47618;DHT22;33336;36.728;-4.414;2023-04-01T02:50:53;21.20;87.00
47618;DHT22;33336;36.728;-4.414;2023-04-01T02:55:58;20.90;88.50
47618;DHT22;33336;36.728;-4.414;2023-04-01T03:01:01;21.10;88.10
47618;DHT22;33336;36.728;-4.414;2023-04-01T03:06:05;20.90;88.60
47618;DHT22;33336;36.728;-4.414;2023-04-01T03:11:10;21.00;88.60
47618;DHT22;33336;36.728;-4.414;2023-04-01T03:16:13;21.10;88.10
47618;DHT22;33336;36.728;-4.414;2023-04-01T03:21:18;21.00;88.60
47618;DHT22;33336;36.728;-4.414;2023-04-01T03:26:22;20.90;89.20
47618;DHT22;33336;36.728;-4.414;2023-04-01T03:31:25;20.90;89.00
47618;DHT22;33336;36.728;-4.414;2023-04-01T03:36:28;20.80;89.60
47618;DHT22;33336;36.728;-4.414;2023-04-01T03:41:34;20.70;90.00
47618;DHT22;33336;36.728;-4.414;2023-04-01T03:46:37;20.50;90.20
47618;DHT22;33336;36.728;-4.414;2023-04-01T03:51:41;20.80;89.70
47618;DHT22;33336;36.728;-4.414;2023-04-01T03:56:46;20.80;89.90
47618;DHT22;33336;36.728;-4.414;2023-04-01T04:01:49;20.60;90.00
47618;DHT22;33336;36.728;-4.414;2023-04-01T04:06:52;20.70;89.50
47618;DHT22;33336;36.728;-4.414;2023-04-01T04:11:57;20.60;89.60
47618;DHT22;33336;36.728;-4.414;2023-04-01T04:17:00;20.60;89.60
47618;DHT22;33336;36.728;-4.414;2023-04-01T04:22:03;20.00;90.60
47618;DHT22;33336;36.728;-4.414;2023-04-01T04:27:08;20.30;90.20
47618;DHT22;33336;36.728;-4.414;2023-04-01T04:32:10;20.20;90.10
47618;DHT22;33336;36.728;-4.414;2023-04-01T04:37:13;19.90;90.50
47618;DHT22;33336;36.728;-4.414;2023-04-01T04:42:18;19.80;90.40
47618;DHT22;33336;36.728;-4.414;2023-04-01T04:47:20;19.70;90.70
47618;DHT22;33336;36.728;-4.414;2023-04-01T04:52:24;19.90;90.40
47618;DHT22;33336;36.728;-4.414;2023-04-01T04:57:28;19.50;90.70
47618;DHT22;33336;36.728;-4.414;2023-04-01T05:02:32;19.60;90.50
47618;DHT22;33336;36.728;-4.414;2023-04-01T05:07:35;19.50;90.40
47618;DHT22;33336;36.728;-4.414;2023-04-01T05:12:40;19.40;90.40
47618;DHT22;33336;36.728;-4.414;2023-04-01T05:17:43;19.40;90.10
47618;DHT22;33336;36.728;-4.414;2023-04-01T05:22:46;19.50;90.10
47618;DHT22;33336;36.728;-4.414;2023-04-01T05:27:50;19.40;89.90
47618;DHT22;33336;36.728;-4.414;2023-04-01T05:32:53;19.30;89.90
47618;DHT22;33336;36.728;-4.414;2023-04-01T05:37:56;19.20;90.00
47618;DHT22;33336;36.728;-4.414;2023-04-01T05:43:03;19.20;89.50
47618;DHT22;33336;36.728;-4.414;2023-04-01T05:48:05;19.30;88.90
47618;DHT22;33336;36.728;-4.414;2023-04-01T05:53:08;19.20;89.30
47618;DHT22;33336;36.728;-4.414;2023-04-01T05:58:12;19.20;88.90
47618;DHT22;33336;36.728;-4.414;2023-04-01T06:03:16;19.10;88.00
47618;DHT22;33336;36.728;-4.414;2023-04-01T06:08:19;19.30;88.10
47618;DHT22;33336;36.728;-4.414;2023-04-01T06:13:32;19.20;87.80
47618;DHT22;33336;36.728;-4.414;2023-04-01T06:18:56;19.10;87.40
47618;DHT22;33336;36.728;-4.414;2023-04-01T06:24:12;19.10;86.90
47618;DHT22;33336;36.728;-4.414;2023-04-01T06:35:17;18.90;85.40
47618;DHT22;33336;36.728;-4.414;2023-04-01T06:40:40;19.00;85.50
47618;DHT22;33336;36.728;-4.414;2023-04-01T06:45:50;19.20;84.40
47618;DHT22;33336;36.728;-4.414;2023-04-01T06:51:02;19.40;84.30
47618;DHT22;33336;36.728;-4.414;2023-04-01T06:56:11;19.30;84.40
47618;DHT22;33336;36.728;-4.414;2023-04-01T07:01:22;19.30;82.20
47618;DHT22;33336;36.728;-4.414;2023-04-01T07:06:30;19.30;80.20
47618;DHT22;33336;36.728;-4.414;2023-04-01T07:11:36;19.60;79.70
47618;DHT22;33336;36.728;-4.414;2023-04-01T07:16:44;19.70;81.10
47618;DHT22;33336;36.728;-4.414;2023-04-01T07:21:54;19.70;80.90
47618;DHT22;33336;36.728;-4.414;2023-04-01T07:26:59;19.60;79.40
47618;DHT22;33336;36.728;-4.414;2023-04-01T07:32:30;20.00;78.40
47618;DHT22;33336;36.728;-4.414;2023-04-01T07:37:42;20.20;77.70
47618;DHT22;33336;36.728;-4.414;2023-04-01T07:43:02;20.20;76.90
47618;DHT22;33336;36.728;-4.414;2023-04-01T07:48:20;20.30;72.60
47618;DHT22;33336;36.728;-4.414;2023-04-01T07:53:34;20.50;71.70
47618;DHT22;33336;36.728;-4.414;2023-04-01T07:58:48;20.70;70.30
47618;DHT22;33336;36.728;-4.414;2023-04-01T08:04:08;20.70;70.10
47618;DHT22;33336;36.728;-4.414;2023-04-01T08:09:20;21.00;70.60
47618;DHT22;33336;36.728;-4.414;2023-04-01T08:14:32;21.10;69.60
47618;DHT22;33336;36.728;-4.414;2023-04-01T08:19:50;21.10;70.00
47618;DHT22;33336;36.728;-4.414;2023-04-01T08:24:58;20.80;69.20
47618;DHT22;33336;36.728;-4.414;2023-04-01T08:30:15;21.00;69.30
47618;DHT22;33336;36.728;-4.414;2023-04-01T08:35:26;21.40;69.20
47618;DHT22;33336;36.728;-4.414;2023-04-01T08:41:01;21.60;67.70
47618;DHT22;33336;36.728;-4.414;2023-04-01T08:46:16;22.00;67.90
47618;DHT22;33336;36.728;-4.414;2023-04-01T08:56:55;21.90;67.00
47618;DHT22;33336;36.728;-4.414;2023-04-01T09:02:22;21.90;65.80
47618;DHT22;33336;36.728;-4.414;2023-04-01T09:07:35;22.10;66.10
47618;DHT22;33336;36.728;-4.414;2023-04-01T09:13:05;22.50;67.10
47618;DHT22;33336;36.728;-4.414;2023-04-01T09:18:29;22.50;65.50
47618;DHT22;33336;36.728;-4.414;2023-04-01T09:24:12;22.60;66.00
47618;DHT22;33336;36.728;-4.414;2023-04-01T09:29:29;23.10;67.10
47618;DHT22;33336;36.728;-4.414;2023-04-01T09:34:52;23.10;68.20
47618;DHT22;33336;36.728;-4.414;2023-04-01T09:40:13;22.70;67.90
47618;DHT22;33336;36.728;-4.414;2023-04-01T09:45:34;23.40;67.50
47618;DHT22;33336;36.728;-4.414;2023-04-01T09:50:47;23.70;66.80
47618;DHT22;33336;36.728;-4.414;2023-04-01T09:56:19;23.60;66.00
47618;DHT22;33336;36.728;-4.414;2023-04-01T10:01:42;23.70;65.10
47618;DHT22;33336;36.728;-4.414;2023-04-01T10:07:22;24.20;66.10
47618;DHT22;33336;36.728;-4.414;2023-04-01T10:13:07;24.00;66.10
47618;DHT22;33336;36.728;-4.414;2023-04-01T10:24:34;23.20;65.70
47618;DHT22;33336;36.728;-4.414;2023-04-01T10:30:13;23.60;66.30
47618;DHT22;33336;36.728;-4.414;2023-04-01T10:47:34;23.50;64.50
47618;DHT22;33336;36.728;-4.414;2023-04-01T11:04:47;23.70;62.80
47618;DHT22;33336;36.728;-4.414;2023-04-01T11:16:17;23.60;61.70
47618;DHT22;33336;36.728;-4.414;2023-04-01T11:27:30;24.20;60.80
47618;DHT22;33336;36.728;-4.414;2023-04-01T11:32:46;24.40;60.80
47618;DHT22;33336;36.728;-4.414;2023-04-01T11:37:57;24.50;60.70
47618;DHT22;33336;36.728;-4.414;2023-04-01T11:43:11;24.70;60.60
47618;DHT22;33336;36.728;-4.414;2023-04-01T11:48:28;25.00;60.20
47618;DHT22;33336;36.728;-4.414;2023-04-01T11:53:44;25.10;60.20
47618;DHT22;33336;36.728;-4.414;2023-04-01T11:59:10;25.20;60.20
47618;DHT22;33336;36.728;-4.414;2023-04-01T12:04:45;25.70;59.20
47618;DHT22;33336;36.728;-4.414;2023-04-01T12:10:01;25.40;60.30
47618;DHT22;33336;36.728;-4.414;2023-04-01T12:15:20;25.90;59.80
47618;DHT22;33336;36.728;-4.414;2023-04-01T12:20:36;26.20;60.20
47618;DHT22;33336;36.728;-4.414;2023-04-01T12:26:04;26.50;58.90
47618;DHT22;33336;36.728;-4.414;2023-04-01T12:31:26;26.50;59.40
47618;DHT22;33336;36.728;-4.414;2023-04-01T12:36:44;26.50;59.10
47618;DHT22;33336;36.728;-4.414;2023-04-01T12:41:53;26.40;59.10
47618;DHT22;33336;36.728;-4.414;2023-04-01T12:52:55;26.70;59.10
47618;DHT22;33336;36.728;-4.414;2023-04-01T13:09:48;26.40;58.90
47618;DHT22;33336;36.728;-4.414;2023-04-01T13:15:09;26.30;58.80
47618;DHT22;33336;36.728;-4.414;2023-04-01T13:20:19;26.60;59.10
47618;DHT22;33336;36.728;-4.414;2023-04-01T13:25:31;26.50;58.90
47618;DHT22;33336;36.728;-4.414;2023-04-01T13:30:44;27.00;59.10
47618;DHT22;33336;36.728;-4.414;2023-04-01T13:35:58;27.40;59.00
47618;DHT22;33336;36.728;-4.414;2023-04-01T13:41:13;26.30;59.10
47618;DHT22;33336;36.728;-4.414;2023-04-01T13:46:39;27.10;59.60
47618;DHT22;33336;36.728;-4.414;2023-04-01T13:57:44;27.90;58.00
47618;DHT22;33336;36.728;-4.414;2023-04-01T14:08:26;27.70;58.00
47618;DHT22;33336;36.728;-4.414;2023-04-01T14:13:37;28.10;58.50
47618;DHT22;33336;36.728;-4.414;2023-04-01T14:18:58;29.10;58.00
47618;DHT22;33336;36.728;-4.414;2023-04-01T14:24:17;29.00;58.00
47618;DHT22;33336;36.728;-4.414;2023-04-01T14:29:28;29.10;59.00
47618;DHT22;33336;36.728;-4.414;2023-04-01T14:34:51;29.70;58.70
47618;DHT22;33336;36.728;-4.414;2023-04-01T14:40:22;29.70;58.50
47618;DHT22;33336;36.728;-4.414;2023-04-01T14:45:41;30.30;57.80
47618;DHT22;33336;36.728;-4.414;2023-04-01T14:50:51;29.00;58.30
47618;DHT22;33336;36.728;-4.414;2023-04-01T14:55:56;29.70;58.30
47618;DHT22;33336;36.728;-4.414;2023-04-01T15:01:13;29.90;58.10
47618;DHT22;33336;36.728;-4.414;2023-04-01T15:06:43;29.30;58.10
47618;DHT22;33336;36.728;-4.414;2023-04-01T15:12:01;29.70;57.30
47618;DHT22;33336;36.728;-4.414;2023-04-01T15:17:24;29.00;57.50
47618;DHT22;33336;36.728;-4.414;2023-04-01T15:22:52;29.90;57.70
47618;DHT22;33336;36.728;-4.414;2023-04-01T15:28:03;30.00;57.60
47618;DHT22;33336;36.728;-4.414;2023-04-01T15:33:21;31.30;56.90
47618;DHT22;33336;36.728;-4.414;2023-04-01T15:38:33;30.20;55.10
47618;DHT22;33336;36.728;-4.414;2023-04-01T15:43:41;32.20;55.70
47618;DHT22;33336;36.728;-4.414;2023-04-01T15:48:58;31.80;55.90
47618;DHT22;33336;36.728;-4.414;2023-04-01T15:54:19;34.20;55.00
47618;DHT22;33336;36.728;-4.414;2023-04-01T15:59:52;33.10;53.30
47618;DHT22;33336;36.728;-4.414;2023-04-01T16:05:01;34.20;54.20
47618;DHT22;33336;36.728;-4.414;2023-04-01T16:10:30;35.10;53.70
47618;DHT22;33336;36.728;-4.414;2023-04-01T16:15:47;34.30;52.50
47618;DHT22;33336;36.728;-4.414;2023-04-01T16:20:55;33.50;53.80
47618;DHT22;33336;36.728;-4.414;2023-04-01T16:26:07;34.10;52.90
47618;DHT22;33336;36.728;-4.414;2023-04-01T16:31:13;31.20;54.60
47618;DHT22;33336;36.728;-4.414;2023-04-01T16:36:27;33.00;53.60
47618;DHT22;33336;36.728;-4.414;2023-04-01T16:41:33;33.80;53.00
47618;DHT22;33336;36.728;-4.414;2023-04-01T16:46:40;33.40;54.30
47618;DHT22;33336;36.728;-4.414;2023-04-01T16:51:48;34.80;53.40
47618;DHT22;33336;36.728;-4.414;2023-04-01T16:57:04;33.90;54.30
47618;DHT22;33336;36.728;-4.414;2023-04-01T17:02:22;33.10;55.60
47618;DHT22;33336;36.728;-4.414;2023-04-01T17:07:38;34.00;55.70
47618;DHT22;33336;36.728;-4.414;2023-04-01T17:12:49;34.10;54.90
47618;DHT22;33336;36.728;-4.414;2023-04-01T17:17:59;34.40;53.40
47618;DHT22;33336;36.728;-4.414;2023-04-01T17:23:19;36.00;54.20
47618;DHT22;33336;36.728;-4.414;2023-04-01T17:28:34;33.20;54.80
47618;DHT22;33336;36.728;-4.414;2023-04-01T17:34:00;34.00;55.30
47618;DHT22;33336;36.728;-4.414;2023-04-01T17:39:22;35.00;54.00
47618;DHT22;33336;36.728;-4.414;2023-04-01T17:49:58;33.50;55.70
47618;DHT22;33336;36.728;-4.414;2023-04-01T17:55:30;33.30;56.00
47618;DHT22;33336;36.728;-4.414;2023-04-01T18:00:39;34.50;55.00
47618;DHT22;33336;36.728;-4.414;2023-04-01T18:06:02;34.90;55.20
47618;DHT22;33336;36.728;-4.414;2023-04-01T18:11:17;34.30;54.70
47618;DHT22;33336;36.728;-4.414;2023-04-01T18:16:47;30.20;58.20
47618;DHT22;33336;36.728;-4.414;2023-04-01T18:22:08;29.20;58.40
47618;DHT22;33336;36.728;-4.414;2023-04-01T18:27:17;29.50;59.40
47618;DHT22;33336;36.728;-4.414;2023-04-01T18:32:30;29.50;59.40
47618;DHT22;33336;36.728;-4.414;2023-04-01T18:37:42;28.70;59.90
47618;DHT22;33336;36.728;-4.414;2023-04-01T18:42:55;27.80;61.20
47618;DHT22;33336;36.728;-4.414;2023-04-01T18:48:30;27.10;61.70
47618;DHT22;33336;36.728;-4.414;2023-04-01T18:53:41;27.20;61.60
47618;DHT22;33336;36.728;-4.414;2023-04-01T18:58:50;27.00;61.50
47618;DHT22;33336;36.728;-4.414;2023-04-01T19:04:07;27.30;61.70
47618;DHT22;33336;36.728;-4.414;2023-04-01T19:09:25;27.10;61.60
47618;DHT22;33336;36.728;-4.414;2023-04-01T19:14:30;26.10;63.10
47618;DHT22;33336;36.728;-4.414;2023-04-01T19:19:51;26.20;63.00
47618;DHT22;33336;36.728;-4.414;2023-04-01T19:25:15;26.10;63.40
47618;DHT22;33336;36.728;-4.414;2023-04-01T19:30:45;26.50;62.70
47618;DHT22;33336;36.728;-4.414;2023-04-01T19:35:58;26.10;63.50
47618;DHT22;33336;36.728;-4.414;2023-04-01T19:41:14;26.10;63.60
47618;DHT22;33336;36.728;-4.414;2023-04-01T19:46:28;25.90;64.40
47618;DHT22;33336;36.728;-4.414;2023-04-01T19:51:39;25.70;64.80
47618;DHT22;33336;36.728;-4.414;2023-04-01T19:56:47;25.70;65.00
47618;DHT22;33336;36.728;-4.414;2023-04-01T20:01:59;25.50;65.70
47618;DHT22;33336;36.728;-4.414;2023-04-01T20:07:07;25.80;65.30
47618;DHT22;33336;36.728;-4.414;2023-04-01T20:12:21;25.40;65.80
47618;DHT22;33336;36.728;-4.414;2023-04-01T20:17:31;25.20;66.90
47618;DHT22;33336;36.728;-4.414;2023-04-01T20:22:55;25.40;66.70
47618;DHT22;33336;36.728;-4.414;2023-04-01T20:28:09;25.10;68.20
47618;DHT22;33336;36.728;-4.414;2023-04-01T20:39:15;25.00;68.20
47618;DHT22;33336;36.728;-4.414;2023-04-01T20:44:28;25.00;68.30
47618;DHT22;33336;36.728;-4.414;2023-04-01T20:49:40;24.80;68.40
47618;DHT22;33336;36.728;-4.414;2023-04-01T20:54:55;24.80;68.50
47618;DHT22;33336;36.728;-4.414;2023-04-01T21:00:27;24.80;68.40
47618;DHT22;33336;36.728;-4.414;2023-04-01T21:11:16;24.50;69.30
47618;DHT22;33336;36.728;-4.414;2023-04-01T21:16:26;24.50;69.60
47618;DHT22;33336;36.728;-4.414;2023-04-01T21:21:57;24.60;69.30
47618;DHT22;33336;36.728;-4.414;2023-04-01T21:27:11;24.30;70.30
47618;DHT22;33336;36.728;-4.414;2023-04-01T21:32:36;24.10;70.70
47618;DHT22;33336;36.728;-4.414;2023-04-01T21:37:58;24.10;70.60
47618;DHT22;33336;36.728;-4.414;2023-04-01T21:43:17;24.30;70.30
47618;DHT22;33336;36.728;-4.414;2023-04-01T21:48:49;24.50;69.60
47618;DHT22;33336;36.728;-4.414;2023-04-01T21:54:22;24.00;70.90
47618;DHT22;33336;36.728;-4.414;2023-04-01T22:00:04;24.10;71.30
47618;DHT22;33336;36.728;-4.414;2023-04-01T22:05:14;23.80;71.80
47618;DHT22;33336;36.728;-4.414;2023-04-01T22:10:26;23.70;72.30
47618;DHT22;33336;36.728;-4.414;2023-04-01T22:15:52;23.80;72.40
47618;DHT22;33336;36.728;-4.414;2023-04-01T22:21:03;23.70;72.30
47618;DHT22;33336;36.728;-4.414;2023-04-01T22:26:15;23.60;72.60
47618;DHT22;33336;36.728;-4.414;2023-04-01T22:31:23;23.30;73.80
47618;DHT22;33336;36.728;-4.414;2023-04-01T22:36:33;23.30;73.90
47618;DHT22;33336;36.728;-4.414;2023-04-01T22:41:51;23.40;74.10
47618;DHT22;33336;36.728;-4.414;2023-04-01T22:47:03;23.10;74.90
47618;DHT22;33336;36.728;-4.414;2023-04-01T22:52:13;22.90;75.80
47618;DHT22;33336;36.728;-4.414;2023-04-01T22:57:36;23.00;75.60
47618;DHT22;33336;36.728;-4.414;2023-04-01T23:02:47;22.70;76.50
47618;DHT22;33336;36.728;-4.414;2023-04-01T23:07:56;22.90;76.60
47618;DHT22;33336;36.728;-4.414;2023-04-01T23:13:05;22.90;76.70
47618;DHT22;33336;36.728;-4.414;2023-04-01T23:18:20;22.70;77.00
47618;DHT22;33336;36.728;-4.414;2023-04-01T23:23:33;22.30;78.90
47618;DHT22;33336;36.728;-4.414;2023-04-01T23:28:45;22.70;77.70
47618;DHT22;33336;36.728;-4.414;2023-04-01T23:33:53;22.50;78.80
47618;DHT22;33336;36.728;-4.414;2023-04-01T23:38:56;22.70;78.40
47618;DHT22;33336;36.728;-4.414;2023-04-01T23:44:05;22.40;79.50
47618;DHT22;33336;36.728;-4.414;2023-04-01T23:49:14;22.20;80.40
47618;DHT22;33336;36.728;-4.414;2023-04-01T23:54:23;22.20;80.40
47618;DHT22;33336;36.728;-4.414;2023-04-01T23:59:33;22.50;79.70
